createdAt,value
2023-04-03T00:12:50.399Z,58.70
2023-04-03T00:18:16.450Z,58.70
2023-04-03T00:29:29.404Z,58.70
2023-04-03T00:34:54.484Z,58.90
2023-04-03T00:40:18.566Z,58.80
2023-04-03T00:45:46.504Z,58.80
2023-04-03T00:51:12.546Z,58.60
2023-04-03T00:56:39.615Z,58.80
2023-04-03T01:02:03.501Z,58.60
2023-04-03T01:07:34.531Z,58.70
2023-04-03T01:12:59.558Z,58.00
2023-04-03T01:18:22.504Z,58.20
2023-04-03T01:24:01.558Z,58.10
2023-04-03T01:29:26.472Z,57.80
2023-04-03T01:34:51.541Z,57.80
2023-04-03T01:40:16.502Z,57.90
2023-04-03T01:45:39.521Z,57.90
2023-04-03T01:51:04.490Z,58.10
2023-04-03T01:56:27.616Z,58.00
2023-04-03T02:01:51.522Z,58.20
2023-04-03T02:07:16.542Z,58.90
2023-04-03T02:12:39.503Z,58.20
2023-04-03T02:18:02.676Z,58.10
2023-04-03T02:23:32.486Z,58.10
2023-04-03T02:28:56.641Z,57.80
2023-04-03T02:34:23.627Z,58.10
2023-04-03T02:45:39.691Z,57.70
2023-04-03T02:51:03.639Z,57.70
2023-04-03T02:56:28.805Z,57.70
2023-04-03T03:01:52.566Z,57.40
2023-04-03T03:07:16.550Z,57.60
2023-04-03T03:12:41.555Z,57.50
2023-04-03T03:18:04.580Z,57.50
2023-04-03T03:23:27.550Z,57.40
2023-04-03T03:28:54.559Z,57.40
2023-04-03T03:34:18.563Z,57.40
2023-04-03T03:45:19.658Z,57.20
2023-04-03T03:50:42.672Z,57.80
2023-04-03T03:56:06.538Z,57.40
2023-04-03T04:01:33.659Z,57.10
2023-04-03T04:06:57.624Z,57.20
2023-04-03T04:12:22.522Z,57.10
2023-04-03T04:17:48.643Z,57.10
2023-04-03T04:23:12.570Z,57.00
2023-04-03T04:28:36.780Z,57.00
2023-04-03T04:34:01.571Z,57.00
2023-04-03T04:39:26.584Z,57.00
2023-04-03T04:44:49.617Z,57.10
2023-04-03T04:50:16.652Z,57.20
2023-04-03T04:55:40.738Z,57.20
2023-04-03T05:01:08.650Z,57.30
2023-04-03T05:06:45.624Z,57.20
2023-04-03T05:12:12.544Z,57.20
2023-04-03T05:17:42.676Z,57.30
2023-04-03T05:23:08.610Z,57.40
2023-04-03T05:28:32.673Z,57.40
2023-04-03T05:33:56.597Z,57.50
2023-04-03T05:39:24.705Z,57.50
2023-04-03T05:44:50.620Z,57.50
2023-04-03T05:50:15.836Z,57.60
2023-04-03T05:55:45.603Z,57.50
2023-04-03T06:01:08.628Z,57.40
2023-04-03T06:06:56.137Z,57.50
2023-04-03T06:12:27.720Z,57.50
2023-04-03T06:17:50.653Z,57.70
2023-04-03T06:23:14.616Z,57.80
2023-04-03T06:28:40.607Z,58.00
2023-04-03T06:34:03.672Z,57.80
2023-04-03T06:39:30.691Z,57.90
2023-04-03T06:44:55.655Z,57.80
2023-04-03T06:50:21.645Z,57.80
2023-04-03T06:55:45.690Z,57.90
2023-04-03T07:01:12.790Z,58.00
2023-04-03T07:06:39.662Z,58.00
2023-04-03T07:12:02.715Z,58.10
2023-04-03T07:17:28.758Z,58.00
2023-04-03T07:22:51.620Z,58.00
2023-04-03T07:28:15.647Z,57.70
2023-04-03T07:33:41.612Z,57.60
2023-04-03T07:39:04.730Z,57.10
2023-04-03T07:44:27.771Z,57.50
2023-04-03T07:49:55.910Z,57.80
2023-04-03T07:55:24.776Z,57.70
2023-04-03T08:00:47.860Z,57.60
2023-04-03T08:06:16.341Z,57.50
2023-04-03T08:11:39.737Z,57.00
2023-04-03T08:17:03.787Z,57.30
2023-04-03T08:22:31.526Z,57.60
2023-04-03T08:27:54.694Z,58.10
2023-04-03T08:33:19.800Z,58.00
2023-04-03T08:38:44.719Z,58.00
2023-04-03T08:44:30.735Z,58.00
2023-04-03T08:49:58.752Z,57.60
2023-04-03T08:55:39.106Z,57.60
2023-04-03T09:01:07.806Z,57.70
2023-04-03T09:06:37.319Z,56.20
2023-04-03T09:12:16.747Z,57.20
2023-04-03T09:17:54.766Z,56.70
2023-04-03T09:23:28.765Z,57.30
2023-04-03T09:28:54.712Z,57.10
2023-04-03T09:34:26.700Z,57.40
2023-04-03T09:40:08.735Z,57.00
2023-04-03T09:45:35.708Z,56.20
2023-04-03T09:51:11.947Z,56.20
2023-04-03T09:56:37.740Z,53.30
2023-04-03T10:02:13.752Z,55.60
2023-04-03T10:07:54.470Z,55.70
2023-04-03T10:13:24.728Z,55.90
2023-04-03T10:18:55.791Z,56.10
2023-04-03T10:24:26.808Z,55.30
2023-04-03T10:29:57.777Z,54.00
2023-04-03T10:35:48.854Z,53.60
2023-04-03T10:41:18.727Z,54.30
2023-04-03T10:46:51.824Z,52.80
2023-04-03T10:52:24.883Z,50.60
2023-04-03T10:57:47.861Z,52.60
2023-04-03T11:03:14.770Z,52.60
2023-04-03T11:08:50.766Z,49.70
2023-04-03T11:14:26.808Z,48.60
2023-04-03T11:19:53.828Z,52.00
2023-04-03T11:25:32.821Z,49.90
2023-04-03T11:31:04.020Z,49.10
2023-04-03T11:36:35.799Z,52.00
2023-04-03T11:42:12.502Z,52.60
2023-04-03T11:48:07.311Z,52.00
2023-04-03T11:53:42.758Z,52.30
2023-04-03T11:59:36.847Z,47.10
2023-04-03T12:05:36.950Z,48.50
2023-04-03T12:11:30.817Z,48.80
2023-04-03T12:16:59.928Z,50.90
2023-04-03T12:22:32.284Z,49.80
2023-04-03T12:27:55.799Z,51.30
2023-04-03T12:33:37.956Z,47.70
2023-04-03T12:39:11.836Z,42.30
2023-04-03T12:44:50.944Z,46.90
2023-04-03T12:50:30.858Z,49.70
2023-04-03T12:55:53.846Z,46.80
2023-04-03T13:01:26.036Z,49.30
2023-04-03T13:06:55.808Z,49.50
2023-04-03T13:12:21.899Z,48.80
2023-04-03T13:17:45.999Z,45.30
2023-04-03T13:23:19.320Z,44.10
2023-04-03T13:28:42.921Z,42.10
2023-04-03T13:34:12.874Z,45.40
2023-04-03T13:39:40.932Z,45.50
2023-04-03T13:45:19.911Z,48.30
2023-04-03T13:50:42.857Z,47.40
2023-04-03T13:56:15.868Z,45.70
2023-04-03T14:01:39.980Z,47.20
2023-04-03T14:07:03.976Z,48.40
2023-04-03T14:12:32.896Z,48.30
2023-04-03T14:18:00.339Z,43.30
2023-04-03T14:23:24.173Z,48.00
2023-04-03T14:28:50.231Z,48.60
2023-04-03T14:34:12.980Z,44.80
2023-04-03T14:39:38.171Z,48.10
2023-04-03T14:45:02.917Z,38.40
2023-04-03T14:50:29.904Z,40.40
2023-04-03T14:55:52.937Z,43.50
2023-04-03T15:01:24.951Z,46.80
2023-04-03T15:06:49.960Z,47.10
2023-04-03T15:17:42.484Z,46.90
2023-04-03T15:23:08.962Z,47.00
2023-04-03T15:28:38.074Z,42.80
2023-04-03T15:34:02.903Z,46.40
2023-04-03T15:39:26.028Z,45.60
2023-04-03T15:44:48.987Z,39.50
2023-04-03T15:50:15.034Z,40.70
2023-04-03T15:55:42.918Z,42.70
2023-04-03T16:01:06.970Z,44.70
2023-04-03T16:06:38.136Z,43.40
2023-04-03T16:12:00.994Z,42.60
2023-04-03T16:17:53.651Z,42.60
2023-04-03T16:23:33.953Z,43.30
2023-04-03T16:35:21.500Z,45.70
2023-04-03T16:41:18.044Z,45.40
2023-04-03T16:47:09.472Z,45.40
2023-04-03T17:05:49.791Z,43.70
2023-04-03T17:12:18.442Z,43.50
2023-04-03T17:46:42.192Z,44.50
2023-04-03T18:12:13.413Z,45.20
2023-04-03T18:17:38.520Z,45.70
2023-04-03T18:22:42.811Z,46.30
2023-04-03T18:28:06.690Z,46.60
2023-04-03T18:33:10.179Z,46.30
2023-04-03T18:38:23.950Z,46.70
2023-04-03T18:43:41.238Z,46.70
2023-04-03T19:16:48.030Z,46.20
2023-04-03T20:07:26.607Z,45.30
2023-04-03T20:12:52.547Z,45.50
2023-04-03T20:18:25.642Z,45.50
2023-04-03T20:23:53.981Z,45.70
2023-04-03T20:29:16.550Z,45.70
2023-04-03T20:34:48.224Z,46.30
2023-04-03T20:40:25.588Z,46.10
2023-04-03T20:45:52.945Z,45.70
2023-04-03T20:51:23.462Z,45.60
2023-04-03T20:56:51.050Z,45.80
2023-04-03T21:02:13.622Z,45.50
2023-04-03T21:08:22.558Z,45.10
2023-04-03T21:14:24.450Z,45.00
2023-04-03T21:19:52.601Z,44.20
2023-04-03T21:25:16.588Z,44.80
2023-04-03T21:30:42.193Z,45.00
2023-04-03T21:36:14.599Z,45.20
2023-04-03T21:41:40.695Z,45.50
2023-04-03T21:47:03.608Z,45.90
2023-04-03T21:52:31.843Z,46.10
2023-04-03T21:58:07.737Z,46.30
2023-04-03T22:03:35.569Z,46.40
2023-04-03T22:09:06.676Z,46.50
2023-04-03T22:14:32.528Z,46.60
2023-04-03T22:21:12.396Z,46.90
2023-04-03T22:26:38.883Z,46.80
2023-04-03T22:31:42.885Z,47.00
2023-04-03T22:36:46.542Z,47.00
2023-04-03T22:41:52.756Z,47.80
2023-04-03T22:46:55.987Z,47.10
2023-04-03T22:51:59.450Z,47.20
2023-04-03T22:57:10.326Z,47.20
2023-04-03T23:02:13.676Z,47.20
2023-04-03T23:07:17.422Z,47.10
2023-04-03T23:12:22.642Z,47.10
2023-04-03T23:17:26.109Z,47.00
2023-04-03T23:22:29.735Z,47.10
2023-04-03T23:27:34.595Z,47.10
2023-04-03T23:32:43.227Z,47.10
2023-04-03T23:37:46.693Z,47.20
2023-04-03T23:42:51.681Z,47.20
2023-04-03T23:47:55.058Z,47.20
2023-04-03T23:52:59.025Z,47.30
2023-04-03T23:58:03.644Z,47.30
